sensor_id;sensor_type;location;lat;lon;timestamp;P1;durP1;ratioP1;P2;durP2;ratioP2
13685;SDS011;6915;48.296;8.874;2022-09-12T00:01:21;4.43;;;4.13;;
13685;SDS011;6915;48.296;8.874;2022-09-12T00:03:51;4.33;;;4.03;;
13685;SDS011;6915;48.296;8.874;2022-09-12T00:06:21;4.33;;;3.93;;
13685;SDS011;6915;48.296;8.874;2022-09-12T00:08:49;4.63;;;4.20;;
13685;SDS011;6915;48.296;8.874;2022-09-12T00:11:17;4.67;;;4.27;;
13685;SDS011;6915;48.296;8.874;2022-09-12T00:13:44;4.20;;;3.90;;
13685;SDS011;6915;48.296;8.874;2022-09-12T00:16:14;4.90;;;4.10;;
13685;SDS011;6915;48.296;8.874;2022-09-12T00:18:42;4.47;;;4.07;;
13685;SDS011;6915;48.296;8.874;2022-09-12T00:21:12;7.13;;;4.43;;
13685;SDS011;6915;48.296;8.874;2022-09-12T00:23:39;4.80;;;4.40;;
13685;SDS011;6915;48.296;8.874;2022-09-12T00:26:06;4.73;;;4.13;;
13685;SDS011;6915;48.296;8.874;2022-09-12T00:28:34;4.10;;;3.80;;
13685;SDS011;6915;48.296;8.874;2022-09-12T00:31:03;4.30;;;3.83;;
13685;SDS011;6915;48.296;8.874;2022-09-12T00:33:31;4.03;;;3.67;;
13685;SDS011;6915;48.296;8.874;2022-09-12T00:35:58;4.70;;;4.30;;
13685;SDS011;6915;48.296;8.874;2022-09-12T00:38:26;4.17;;;3.90;;
13685;SDS011;6915;48.296;8.874;2022-09-12T00:40:53;4.40;;;3.97;;
13685;SDS011;6915;48.296;8.874;2022-09-12T00:43:34;4.63;;;4.20;;
13685;SDS011;6915;48.296;8.874;2022-09-12T00:46:04;4.63;;;4.10;;
13685;SDS011;6915;48.296;8.874;2022-09-12T00:48:34;4.87;;;4.33;;
13685;SDS011;6915;48.296;8.874;2022-09-12T00:51:04;5.07;;;4.67;;
13685;SDS011;6915;48.296;8.874;2022-09-12T00:53:33;4.63;;;4.30;;
13685;SDS011;6915;48.296;8.874;2022-09-12T00:56:00;6.00;;;4.70;;
13685;SDS011;6915;48.296;8.874;2022-09-12T00:58:28;4.87;;;4.47;;
13685;SDS011;6915;48.296;8.874;2022-09-12T01:01:00;4.73;;;4.10;;
13685;SDS011;6915;48.296;8.874;2022-09-12T01:03:28;5.13;;;4.10;;
13685;SDS011;6915;48.296;8.874;2022-09-12T01:05:56;4.63;;;4.23;;
13685;SDS011;6915;48.296;8.874;2022-09-12T01:08:33;4.57;;;4.17;;
13685;SDS011;6915;48.296;8.874;2022-09-12T01:11:02;4.97;;;4.60;;
13685;SDS011;6915;48.296;8.874;2022-09-12T01:13:30;5.77;;;4.30;;
13685;SDS011;6915;48.296;8.874;2022-09-12T01:15:58;5.00;;;4.60;;
13685;SDS011;6915;48.296;8.874;2022-09-12T01:18:29;5.00;;;4.60;;
13685;SDS011;6915;48.296;8.874;2022-09-12T01:21:07;5.10;;;4.60;;
13685;SDS011;6915;48.296;8.874;2022-09-12T01:29:50;4.50;;;4.13;;
13685;SDS011;6915;48.296;8.874;2022-09-12T01:32:33;4.53;;;4.07;;
13685;SDS011;6915;48.296;8.874;2022-09-12T01:35:10;4.90;;;4.50;;
13685;SDS011;6915;48.296;8.874;2022-09-12T01:37:46;4.87;;;4.23;;
13685;SDS011;6915;48.296;8.874;2022-09-12T01:40:20;4.80;;;4.47;;
13685;SDS011;6915;48.296;8.874;2022-09-12T01:42:53;5.10;;;4.43;;
13685;SDS011;6915;48.296;8.874;2022-09-12T01:45:29;5.37;;;4.97;;
13685;SDS011;6915;48.296;8.874;2022-09-12T01:48:04;5.20;;;4.80;;
13685;SDS011;6915;48.296;8.874;2022-09-12T01:50:39;5.00;;;4.60;;
13685;SDS011;6915;48.296;8.874;2022-09-12T01:53:12;4.80;;;4.40;;
13685;SDS011;6915;48.296;8.874;2022-09-12T01:55:44;5.43;;;5.03;;
13685;SDS011;6915;48.296;8.874;2022-09-12T01:58:16;5.03;;;4.63;;
13685;SDS011;6915;48.296;8.874;2022-09-12T02:00:48;5.37;;;4.87;;
13685;SDS011;6915;48.296;8.874;2022-09-12T02:03:22;5.07;;;4.50;;
13685;SDS011;6915;48.296;8.874;2022-09-12T02:05:54;7.77;;;4.90;;
13685;SDS011;6915;48.296;8.874;2022-09-12T02:08:26;6.53;;;4.80;;
13685;SDS011;6915;48.296;8.874;2022-09-12T02:10:57;5.17;;;4.77;;
13685;SDS011;6915;48.296;8.874;2022-09-12T02:13:28;5.30;;;4.80;;
13685;SDS011;6915;48.296;8.874;2022-09-12T02:16:00;4.50;;;4.20;;
13685;SDS011;6915;48.296;8.874;2022-09-12T02:18:32;5.07;;;4.57;;
13685;SDS011;6915;48.296;8.874;2022-09-12T02:21:02;5.07;;;4.57;;
13685;SDS011;6915;48.296;8.874;2022-09-12T02:23:31;4.97;;;4.43;;
13685;SDS011;6915;48.296;8.874;2022-09-12T02:26:07;4.83;;;4.40;;
13685;SDS011;6915;48.296;8.874;2022-09-12T02:28:39;4.90;;;4.53;;
13685;SDS011;6915;48.296;8.874;2022-09-12T02:31:10;6.43;;;4.60;;
13685;SDS011;6915;48.296;8.874;2022-09-12T02:33:45;5.03;;;4.63;;
13685;SDS011;6915;48.296;8.874;2022-09-12T02:36:21;4.93;;;4.53;;
13685;SDS011;6915;48.296;8.874;2022-09-12T02:38:55;4.93;;;4.53;;
13685;SDS011;6915;48.296;8.874;2022-09-12T02:41:22;5.17;;;4.50;;
13685;SDS011;6915;48.296;8.874;2022-09-12T02:43:49;5.07;;;4.70;;
13685;SDS011;6915;48.296;8.874;2022-09-12T02:46:19;4.90;;;4.50;;
13685;SDS011;6915;48.296;8.874;2022-09-12T02:48:51;4.73;;;4.43;;
13685;SDS011;6915;48.296;8.874;2022-09-12T02:51:19;4.53;;;4.23;;
13685;SDS011;6915;48.296;8.874;2022-09-12T02:53:47;4.57;;;4.23;;
13685;SDS011;6915;48.296;8.874;2022-09-12T02:56:15;4.50;;;4.17;;
13685;SDS011;6915;48.296;8.874;2022-09-12T02:58:47;4.50;;;4.13;;
13685;SDS011;6915;48.296;8.874;2022-09-12T03:01:17;4.50;;;4.20;;
13685;SDS011;6915;48.296;8.874;2022-09-12T03:03:59;4.90;;;4.50;;
13685;SDS011;6915;48.296;8.874;2022-09-12T03:06:48;4.90;;;4.50;;
13685;SDS011;6915;48.296;8.874;2022-09-12T03:09:24;4.83;;;4.10;;
13685;SDS011;6915;48.296;8.874;2022-09-12T03:12:05;5.27;;;4.63;;
13685;SDS011;6915;48.296;8.874;2022-09-12T03:14:46;4.80;;;4.40;;
13685;SDS011;6915;48.296;8.874;2022-09-12T03:17:26;5.00;;;4.60;;
13685;SDS011;6915;48.296;8.874;2022-09-12T03:20:01;5.90;;;4.00;;
13685;SDS011;6915;48.296;8.874;2022-09-12T03:22:37;4.43;;;4.13;;
13685;SDS011;6915;48.296;8.874;2022-09-12T03:25:15;4.73;;;4.20;;
13685;SDS011;6915;48.296;8.874;2022-09-12T03:27:46;4.30;;;4.00;;
13685;SDS011;6915;48.296;8.874;2022-09-12T03:30:21;4.20;;;3.90;;
13685;SDS011;6915;48.296;8.874;2022-09-12T03:32:49;4.60;;;4.20;;
13685;SDS011;6915;48.296;8.874;2022-09-12T03:35:21;3.83;;;3.53;;
13685;SDS011;6915;48.296;8.874;2022-09-12T03:37:49;4.70;;;4.40;;
13685;SDS011;6915;48.296;8.874;2022-09-12T03:40:17;4.60;;;4.20;;
13685;SDS011;6915;48.296;8.874;2022-09-12T03:42:44;4.07;;;3.77;;
13685;SDS011;6915;48.296;8.874;2022-09-12T03:45:12;4.47;;;4.10;;
13685;SDS011;6915;48.296;8.874;2022-09-12T03:47:40;4.03;;;3.70;;
13685;SDS011;6915;48.296;8.874;2022-09-12T03:50:07;4.43;;;4.13;;
13685;SDS011;6915;48.296;8.874;2022-09-12T03:52:36;5.07;;;4.67;;
13685;SDS011;6915;48.296;8.874;2022-09-12T03:55:03;4.67;;;4.27;;
13685;SDS011;6915;48.296;8.874;2022-09-12T03:57:30;3.80;;;3.50;;
13685;SDS011;6915;48.296;8.874;2022-09-12T03:59:57;4.63;;;4.00;;
13685;SDS011;6915;48.296;8.874;2022-09-12T04:02:26;4.20;;;3.90;;
13685;SDS011;6915;48.296;8.874;2022-09-12T04:04:52;4.17;;;3.87;;
13685;SDS011;6915;48.296;8.874;2022-09-12T04:07:19;4.20;;;3.83;;
13685;SDS011;6915;48.296;8.874;2022-09-12T04:09:48;4.20;;;3.90;;
13685;SDS011;6915;48.296;8.874;2022-09-12T04:12:15;5.87;;;4.07;;
13685;SDS011;6915;48.296;8.874;2022-09-12T04:14:42;3.83;;;3.50;;
13685;SDS011;6915;48.296;8.874;2022-09-12T04:17:09;4.50;;;4.07;;
13685;SDS011;6915;48.296;8.874;2022-09-12T04:19:36;4.30;;;3.90;;
13685;SDS011;6915;48.296;8.874;2022-09-12T04:22:03;4.73;;;4.20;;
13685;SDS011;6915;48.296;8.874;2022-09-12T04:24:30;3.97;;;3.53;;
13685;SDS011;6915;48.296;8.874;2022-09-12T04:26:59;5.37;;;4.10;;
13685;SDS011;6915;48.296;8.874;2022-09-12T04:29:25;3.93;;;3.63;;
13685;SDS011;6915;48.296;8.874;2022-09-12T04:31:53;4.50;;;4.10;;
13685;SDS011;6915;48.296;8.874;2022-09-12T04:34:20;4.77;;;3.97;;
13685;SDS011;6915;48.296;8.874;2022-09-12T04:36:47;4.57;;;3.87;;
13685;SDS011;6915;48.296;8.874;2022-09-12T04:39:14;4.90;;;3.80;;
13685;SDS011;6915;48.296;8.874;2022-09-12T04:41:41;4.40;;;4.10;;
13685;SDS011;6915;48.296;8.874;2022-09-12T04:44:11;4.20;;;3.90;;
13685;SDS011;6915;48.296;8.874;2022-09-12T04:46:40;3.70;;;3.50;;
13685;SDS011;6915;48.296;8.874;2022-09-12T04:49:09;3.80;;;3.30;;
13685;SDS011;6915;48.296;8.874;2022-09-12T04:51:38;4.00;;;3.70;;
13685;SDS011;6915;48.296;8.874;2022-09-12T04:54:06;3.80;;;3.50;;
13685;SDS011;6915;48.296;8.874;2022-09-12T04:56:36;3.30;;;3.10;;
13685;SDS011;6915;48.296;8.874;2022-09-12T04:59:04;3.93;;;3.60;;
13685;SDS011;6915;48.296;8.874;2022-09-12T05:01:32;3.70;;;3.40;;
13685;SDS011;6915;48.296;8.874;2022-09-12T05:04:00;5.17;;;4.20;;
13685;SDS011;6915;48.296;8.874;2022-09-12T05:06:28;4.07;;;3.77;;
13685;SDS011;6915;48.296;8.874;2022-09-12T05:08:57;4.20;;;3.90;;
13685;SDS011;6915;48.296;8.874;2022-09-12T05:11:26;4.17;;;3.87;;
13685;SDS011;6915;48.296;8.874;2022-09-12T05:13:54;3.90;;;3.60;;
13685;SDS011;6915;48.296;8.874;2022-09-12T05:16:23;3.77;;;3.57;;
13685;SDS011;6915;48.296;8.874;2022-09-12T05:18:52;4.13;;;3.73;;
13685;SDS011;6915;48.296;8.874;2022-09-12T05:21:21;5.40;;;3.80;;
13685;SDS011;6915;48.296;8.874;2022-09-12T05:23:49;3.93;;;3.60;;
13685;SDS011;6915;48.296;8.874;2022-09-12T05:26:17;4.17;;;3.47;;
13685;SDS011;6915;48.296;8.874;2022-09-12T05:28:46;4.43;;;4.10;;
13685;SDS011;6915;48.296;8.874;2022-09-12T05:31:15;3.97;;;3.67;;
13685;SDS011;6915;48.296;8.874;2022-09-12T05:33:43;3.70;;;3.07;;
13685;SDS011;6915;48.296;8.874;2022-09-12T05:36:13;3.33;;;3.13;;
13685;SDS011;6915;48.296;8.874;2022-09-12T05:38:42;3.60;;;3.30;;
13685;SDS011;6915;48.296;8.874;2022-09-12T05:41:10;3.87;;;3.57;;
13685;SDS011;6915;48.296;8.874;2022-09-12T05:43:39;3.30;;;3.00;;
13685;SDS011;6915;48.296;8.874;2022-09-12T05:46:08;3.63;;;3.40;;
13685;SDS011;6915;48.296;8.874;2022-09-12T05:48:37;3.53;;;3.33;;
13685;SDS011;6915;48.296;8.874;2022-09-12T05:51:05;3.77;;;3.47;;
13685;SDS011;6915;48.296;8.874;2022-09-12T05:53:36;4.27;;;3.50;;
13685;SDS011;6915;48.296;8.874;2022-09-12T05:56:04;3.67;;;3.47;;
13685;SDS011;6915;48.296;8.874;2022-09-12T05:58:33;4.40;;;4.00;;
13685;SDS011;6915;48.296;8.874;2022-09-12T06:01:01;3.50;;;3.20;;
13685;SDS011;6915;48.296;8.874;2022-09-12T06:03:29;5.40;;;3.80;;
13685;SDS011;6915;48.296;8.874;2022-09-12T06:05:56;3.50;;;3.30;;
13685;SDS011;6915;48.296;8.874;2022-09-12T06:08:28;3.43;;;3.20;;
13685;SDS011;6915;48.296;8.874;2022-09-12T06:10:58;3.07;;;2.87;;
13685;SDS011;6915;48.296;8.874;2022-09-12T06:13:26;2.50;;;2.40;;
13685;SDS011;6915;48.296;8.874;2022-09-12T06:15:53;2.80;;;2.60;;
13685;SDS011;6915;48.296;8.874;2022-09-12T06:18:20;2.77;;;2.63;;
13685;SDS011;6915;48.296;8.874;2022-09-12T06:20:47;5.70;;;3.37;;
13685;SDS011;6915;48.296;8.874;2022-09-12T06:23:14;3.33;;;3.03;;
13685;SDS011;6915;48.296;8.874;2022-09-12T06:25:47;3.40;;;3.10;;
13685;SDS011;6915;48.296;8.874;2022-09-12T06:28:16;4.30;;;3.90;;
13685;SDS011;6915;48.296;8.874;2022-09-12T06:30:43;4.00;;;3.50;;
13685;SDS011;6915;48.296;8.874;2022-09-12T06:33:10;4.30;;;4.00;;
13685;SDS011;6915;48.296;8.874;2022-09-12T06:35:38;5.67;;;3.90;;
13685;SDS011;6915;48.296;8.874;2022-09-12T06:38:06;4.30;;;3.90;;
13685;SDS011;6915;48.296;8.874;2022-09-12T06:40:33;4.30;;;3.90;;
13685;SDS011;6915;48.296;8.874;2022-09-12T06:43:07;3.80;;;3.40;;
13685;SDS011;6915;48.296;8.874;2022-09-12T06:45:36;6.27;;;3.60;;
13685;SDS011;6915;48.296;8.874;2022-09-12T06:48:03;4.50;;;4.07;;
13685;SDS011;6915;48.296;8.874;2022-09-12T06:50:30;5.33;;;4.57;;
13685;SDS011;6915;48.296;8.874;2022-09-12T06:52:57;4.80;;;4.20;;
13685;SDS011;6915;48.296;8.874;2022-09-12T06:55:24;5.60;;;4.00;;
13685;SDS011;6915;48.296;8.874;2022-09-12T06:57:51;4.40;;;4.10;;
13685;SDS011;6915;48.296;8.874;2022-09-12T07:00:19;4.47;;;4.00;;
13685;SDS011;6915;48.296;8.874;2022-09-12T07:02:47;4.60;;;4.20;;
13685;SDS011;6915;48.296;8.874;2022-09-12T07:05:18;4.63;;;4.23;;
13685;SDS011;6915;48.296;8.874;2022-09-12T07:07:45;5.07;;;4.43;;
13685;SDS011;6915;48.296;8.874;2022-09-12T07:10:12;5.07;;;4.67;;
13685;SDS011;6915;48.296;8.874;2022-09-12T07:12:39;4.37;;;3.97;;
13685;SDS011;6915;48.296;8.874;2022-09-12T07:15:07;4.50;;;4.10;;
13685;SDS011;6915;48.296;8.874;2022-09-12T07:17:35;4.40;;;4.10;;
13685;SDS011;6915;48.296;8.874;2022-09-12T07:20:04;4.57;;;4.20;;
13685;SDS011;6915;48.296;8.874;2022-09-12T07:22:33;5.07;;;4.20;;
13685;SDS011;6915;48.296;8.874;2022-09-12T07:25:00;5.10;;;4.60;;
13685;SDS011;6915;48.296;8.874;2022-09-12T07:27:27;4.93;;;4.30;;
13685;SDS011;6915;48.296;8.874;2022-09-12T07:29:54;4.80;;;4.40;;
13685;SDS011;6915;48.296;8.874;2022-09-12T07:32:21;4.50;;;4.20;;
13685;SDS011;6915;48.296;8.874;2022-09-12T07:34:48;4.93;;;4.23;;
13685;SDS011;6915;48.296;8.874;2022-09-12T07:37:17;6.17;;;4.50;;
13685;SDS011;6915;48.296;8.874;2022-09-12T07:39:44;4.80;;;4.40;;
13685;SDS011;6915;48.296;8.874;2022-09-12T07:42:11;5.13;;;3.97;;
13685;SDS011;6915;48.296;8.874;2022-09-12T07:44:39;4.60;;;4.20;;
13685;SDS011;6915;48.296;8.874;2022-09-12T07:47:06;4.57;;;4.17;;
13685;SDS011;6915;48.296;8.874;2022-09-12T07:49:33;4.00;;;3.70;;
13685;SDS011;6915;48.296;8.874;2022-09-12T07:52:00;4.43;;;3.63;;
13685;SDS011;6915;48.296;8.874;2022-09-12T07:54:29;4.30;;;4.00;;
13685;SDS011;6915;48.296;8.874;2022-09-12T07:56:57;4.50;;;4.10;;
13685;SDS011;6915;48.296;8.874;2022-09-12T07:59:24;4.10;;;3.80;;
13685;SDS011;6915;48.296;8.874;2022-09-12T08:01:52;3.90;;;3.60;;
13685;SDS011;6915;48.296;8.874;2022-09-12T08:04:19;5.33;;;3.97;;
13685;SDS011;6915;48.296;8.874;2022-09-12T08:06:46;3.73;;;3.10;;
13685;SDS011;6915;48.296;8.874;2022-09-12T08:09:14;4.80;;;3.13;;
13685;SDS011;6915;48.296;8.874;2022-09-12T08:11:42;3.43;;;3.17;;
13685;SDS011;6915;48.296;8.874;2022-09-12T08:14:09;3.40;;;3.10;;
13685;SDS011;6915;48.296;8.874;2022-09-12T08:16:36;3.70;;;2.87;;
13685;SDS011;6915;48.296;8.874;2022-09-12T08:21:33;3.30;;;3.10;;
13685;SDS011;6915;48.296;8.874;2022-09-12T08:24:00;3.50;;;3.30;;
13685;SDS011;6915;48.296;8.874;2022-09-12T08:26:29;5.40;;;3.30;;
13685;SDS011;6915;48.296;8.874;2022-09-12T08:28:58;4.30;;;3.70;;
13685;SDS011;6915;48.296;8.874;2022-09-12T08:31:26;3.50;;;3.27;;
13685;SDS011;6915;48.296;8.874;2022-09-12T08:33:54;3.00;;;2.80;;
13685;SDS011;6915;48.296;8.874;2022-09-12T08:36:22;4.50;;;2.90;;
13685;SDS011;6915;48.296;8.874;2022-09-12T08:38:50;3.37;;;3.00;;
13685;SDS011;6915;48.296;8.874;2022-09-12T08:41:23;3.03;;;2.83;;
13685;SDS011;6915;48.296;8.874;2022-09-12T08:44:00;3.92;;;3.15;;
13685;SDS011;6915;48.296;8.874;2022-09-12T08:46:42;3.13;;;2.72;;
13685;SDS011;6915;48.296;8.874;2022-09-12T08:49:19;2.70;;;2.50;;
13685;SDS011;6915;48.296;8.874;2022-09-12T08:51:53;5.80;;;2.80;;
13685;SDS011;6915;48.296;8.874;2022-09-12T08:54:23;5.07;;;2.85;;
13685;SDS011;6915;48.296;8.874;2022-09-12T08:56:51;2.63;;;2.38;;
13685;SDS011;6915;48.296;8.874;2022-09-12T08:59:26;2.90;;;2.70;;
13685;SDS011;6915;48.296;8.874;2022-09-12T09:01:56;2.70;;;2.50;;
13685;SDS011;6915;48.296;8.874;2022-09-12T09:04:31;4.85;;;2.42;;
13685;SDS011;6915;48.296;8.874;2022-09-12T09:07:14;3.67;;;2.35;;
13685;SDS011;6915;48.296;8.874;2022-09-12T09:09:58;3.15;;;2.20;;
13685;SDS011;6915;48.296;8.874;2022-09-12T09:12:39;3.75;;;2.35;;
13685;SDS011;6915;48.296;8.874;2022-09-12T09:15:16;2.45;;;2.35;;
13685;SDS011;6915;48.296;8.874;2022-09-12T09:18:08;3.25;;;2.30;;
13685;SDS011;6915;48.296;8.874;2022-09-12T09:20:41;2.80;;;2.40;;
13685;SDS011;6915;48.296;8.874;2022-09-12T09:23:13;2.28;;;2.17;;
13685;SDS011;6915;48.296;8.874;2022-09-12T09:25:47;3.55;;;2.22;;
13685;SDS011;6915;48.296;8.874;2022-09-12T09:28:20;2.00;;;1.80;;
13685;SDS011;6915;48.296;8.874;2022-09-12T09:30:53;2.10;;;2.00;;
13685;SDS011;6915;48.296;8.874;2022-09-12T09:33:21;2.92;;;1.90;;
13685;SDS011;6915;48.296;8.874;2022-09-12T09:35:54;2.17;;;1.95;;
13685;SDS011;6915;48.296;8.874;2022-09-12T09:38:26;3.50;;;1.80;;
13685;SDS011;6915;48.296;8.874;2022-09-12T09:41:06;3.33;;;2.30;;
13685;SDS011;6915;48.296;8.874;2022-09-12T09:43:45;3.22;;;2.20;;
13685;SDS011;6915;48.296;8.874;2022-09-12T09:46:14;3.55;;;2.00;;
13685;SDS011;6915;48.296;8.874;2022-09-12T09:48:42;2.28;;;2.13;;
13685;SDS011;6915;48.296;8.874;2022-09-12T09:51:12;2.28;;;2.03;;
13685;SDS011;6915;48.296;8.874;2022-09-12T09:53:42;2.55;;;2.00;;
13685;SDS011;6915;48.296;8.874;2022-09-12T09:56:18;1.98;;;1.70;;
13685;SDS011;6915;48.296;8.874;2022-09-12T09:58:52;2.45;;;1.40;;
13685;SDS011;6915;48.296;8.874;2022-09-12T10:01:21;3.33;;;1.77;;
13685;SDS011;6915;48.296;8.874;2022-09-12T10:03:49;2.15;;;1.70;;
13685;SDS011;6915;48.296;8.874;2022-09-12T10:06:21;3.60;;;1.50;;
13685;SDS011;6915;48.296;8.874;2022-09-12T10:09:04;2.38;;;1.40;;
13685;SDS011;6915;48.296;8.874;2022-09-12T10:11:41;2.50;;;1.60;;
13685;SDS011;6915;48.296;8.874;2022-09-12T10:14:24;2.67;;;1.67;;
13685;SDS011;6915;48.296;8.874;2022-09-12T10:16:55;1.65;;;1.52;;
13685;SDS011;6915;48.296;8.874;2022-09-12T10:19:31;1.50;;;1.40;;
13685;SDS011;6915;48.296;8.874;2022-09-12T10:22:00;2.15;;;1.20;;
13685;SDS011;6915;48.296;8.874;2022-09-12T10:24:29;1.17;;;1.08;;
13685;SDS011;6915;48.296;8.874;2022-09-12T10:27:13;1.63;;;1.30;;
13685;SDS011;6915;48.296;8.874;2022-09-12T10:29:43;1.00;;;1.00;;
13685;SDS011;6915;48.296;8.874;2022-09-12T10:32:17;1.10;;;1.00;;
13685;SDS011;6915;48.296;8.874;2022-09-12T10:34:51;1.02;;;1.02;;
13685;SDS011;6915;48.296;8.874;2022-09-12T10:37:22;1.00;;;1.00;;
13685;SDS011;6915;48.296;8.874;2022-09-12T10:39:51;1.05;;;0.90;;
13685;SDS011;6915;48.296;8.874;2022-09-12T10:45:19;2.35;;;1.10;;
13685;SDS011;6915;48.296;8.874;2022-09-12T10:47:50;1.75;;;1.05;;
13685;SDS011;6915;48.296;8.874;2022-09-12T10:50:19;1.15;;;0.85;;
13685;SDS011;6915;48.296;8.874;2022-09-12T10:53:17;1.10;;;1.00;;
13685;SDS011;6915;48.296;8.874;2022-09-12T10:55:58;1.00;;;0.90;;
13685;SDS011;6915;48.296;8.874;2022-09-12T11:01:34;0.60;;;0.60;;
13685;SDS011;6915;48.296;8.874;2022-09-12T11:04:25;0.75;;;0.75;;
13685;SDS011;6915;48.296;8.874;2022-09-12T11:07:09;1.83;;;0.77;;
13685;SDS011;6915;48.296;8.874;2022-09-12T11:10:02;0.75;;;0.70;;
13685;SDS011;6915;48.296;8.874;2022-09-12T11:12:41;0.85;;;0.60;;
13685;SDS011;6915;48.296;8.874;2022-09-12T11:15:24;1.15;;;0.90;;
13685;SDS011;6915;48.296;8.874;2022-09-12T11:18:08;1.05;;;0.60;;
13685;SDS011;6915;48.296;8.874;2022-09-12T11:20:56;0.52;;;0.52;;
13685;SDS011;6915;48.296;8.874;2022-09-12T11:26:30;0.70;;;0.70;;
13685;SDS011;6915;48.296;8.874;2022-09-12T11:29:10;0.63;;;0.47;;
13685;SDS011;6915;48.296;8.874;2022-09-12T11:31:47;0.30;;;0.30;;
13685;SDS011;6915;48.296;8.874;2022-09-12T11:34:32;1.80;;;0.40;;
13685;SDS011;6915;48.296;8.874;2022-09-12T11:37:14;0.40;;;0.40;;
13685;SDS011;6915;48.296;8.874;2022-09-12T11:39:56;0.50;;;0.50;;
13685;SDS011;6915;48.296;8.874;2022-09-12T11:42:34;1.33;;;0.43;;
13685;SDS011;6915;48.296;8.874;2022-09-12T11:47:50;1.30;;;0.40;;
13685;SDS011;6915;48.296;8.874;2022-09-12T11:50:21;0.63;;;0.47;;
13685;SDS011;6915;48.296;8.874;2022-09-12T11:52:53;0.30;;;0.30;;
13685;SDS011;6915;48.296;8.874;2022-09-12T11:55:26;0.73;;;0.50;;
13685;SDS011;6915;48.296;8.874;2022-09-12T11:57:56;1.17;;;0.30;;
13685;SDS011;6915;48.296;8.874;2022-09-12T12:00:25;0.50;;;0.43;;
13685;SDS011;6915;48.296;8.874;2022-09-12T12:02:57;0.38;;;0.20;;
13685;SDS011;6915;48.296;8.874;2022-09-12T12:05:30;0.30;;;0.30;;
13685;SDS011;6915;48.296;8.874;2022-09-12T12:08:03;0.30;;;0.30;;
13685;SDS011;6915;48.296;8.874;2022-09-12T12:10:33;0.30;;;0.30;;
13685;SDS011;6915;48.296;8.874;2022-09-12T12:13:04;0.30;;;0.30;;
13685;SDS011;6915;48.296;8.874;2022-09-12T12:15:36;0.30;;;0.28;;
13685;SDS011;6915;48.296;8.874;2022-09-12T12:18:06;0.30;;;0.28;;
13685;SDS011;6915;48.296;8.874;2022-09-12T12:20:40;1.45;;;0.50;;
13685;SDS011;6915;48.296;8.874;2022-09-12T12:23:21;0.60;;;0.60;;
13685;SDS011;6915;48.296;8.874;2022-09-12T12:25:50;0.73;;;0.40;;
13685;SDS011;6915;48.296;8.874;2022-09-12T12:31:23;0.47;;;0.47;;
13685;SDS011;6915;48.296;8.874;2022-09-12T12:33:51;0.68;;;0.47;;
13685;SDS011;6915;48.296;8.874;2022-09-12T12:36:40;0.40;;;0.40;;
13685;SDS011;6915;48.296;8.874;2022-09-12T12:42:10;0.50;;;0.30;;
13685;SDS011;6915;48.296;8.874;2022-09-12T12:45:48;0.30;;;0.30;;
13685;SDS011;6915;48.296;8.874;2022-09-12T12:57:16;1.00;;;0.35;;
13685;SDS011;6915;48.296;8.874;2022-09-12T13:00:00;0.80;;;0.40;;
13685;SDS011;6915;48.296;8.874;2022-09-12T13:02:31;0.43;;;0.43;;
13685;SDS011;6915;48.296;8.874;2022-09-12T13:05:01;0.28;;;0.28;;
13685;SDS011;6915;48.296;8.874;2022-09-12T13:07:32;0.50;;;0.50;;
13685;SDS011;6915;48.296;8.874;2022-09-12T13:10:02;0.50;;;0.38;;
13685;SDS011;6915;48.296;8.874;2022-09-12T13:12:33;0.45;;;0.40;;
13685;SDS011;6915;48.296;8.874;2022-09-12T13:15:03;0.30;;;0.30;;
13685;SDS011;6915;48.296;8.874;2022-09-12T13:17:52;0.40;;;0.40;;
13685;SDS011;6915;48.296;8.874;2022-09-12T13:20:27;1.15;;;0.40;;
13685;SDS011;6915;48.296;8.874;2022-09-12T13:22:59;0.38;;;0.38;;
13685;SDS011;6915;48.296;8.874;2022-09-12T13:25:27;0.40;;;0.40;;
13685;SDS011;6915;48.296;8.874;2022-09-12T13:28:04;0.30;;;0.30;;
13685;SDS011;6915;48.296;8.874;2022-09-12T13:30:41;1.65;;;0.40;;
13685;SDS011;6915;48.296;8.874;2022-09-12T13:33:14;0.57;;;0.30;;
13685;SDS011;6915;48.296;8.874;2022-09-12T13:36:08;0.45;;;0.45;;
13685;SDS011;6915;48.296;8.874;2022-09-12T13:38:57;0.47;;;0.40;;
13685;SDS011;6915;48.296;8.874;2022-09-12T13:41:45;1.02;;;0.40;;
13685;SDS011;6915;48.296;8.874;2022-09-12T13:44:42;0.90;;;0.30;;
13685;SDS011;6915;48.296;8.874;2022-09-12T13:47:13;0.70;;;0.30;;
13685;SDS011;6915;48.296;8.874;2022-09-12T13:49:50;0.40;;;0.40;;
13685;SDS011;6915;48.296;8.874;2022-09-12T13:52:19;0.43;;;0.40;;
13685;SDS011;6915;48.296;8.874;2022-09-12T13:54:49;0.40;;;0.40;;
13685;SDS011;6915;48.296;8.874;2022-09-12T13:57:26;0.50;;;0.50;;
13685;SDS011;6915;48.296;8.874;2022-09-12T13:59:56;0.40;;;0.40;;
13685;SDS011;6915;48.296;8.874;2022-09-12T14:02:27;0.40;;;0.40;;
13685;SDS011;6915;48.296;8.874;2022-09-12T14:04:55;2.35;;;0.47;;
13685;SDS011;6915;48.296;8.874;2022-09-12T14:07:36;1.17;;;0.30;;
13685;SDS011;6915;48.296;8.874;2022-09-12T14:10:20;0.40;;;0.40;;
13685;SDS011;6915;48.296;8.874;2022-09-12T14:12:55;1.60;;;0.50;;
13685;SDS011;6915;48.296;8.874;2022-09-12T14:15:27;0.90;;;0.45;;
13685;SDS011;6915;48.296;8.874;2022-09-12T14:17:56;0.30;;;0.30;;
13685;SDS011;6915;48.296;8.874;2022-09-12T14:20:25;0.45;;;0.40;;
13685;SDS011;6915;48.296;8.874;2022-09-12T14:22:58;1.10;;;0.50;;
13685;SDS011;6915;48.296;8.874;2022-09-12T14:25:27;0.40;;;0.35;;
13685;SDS011;6915;48.296;8.874;2022-09-12T14:28:01;0.30;;;0.30;;
13685;SDS011;6915;48.296;8.874;2022-09-12T14:30:31;0.40;;;0.40;;
13685;SDS011;6915;48.296;8.874;2022-09-12T14:33:18;1.85;;;0.55;;
13685;SDS011;6915;48.296;8.874;2022-09-12T14:35:46;0.70;;;0.40;;
13685;SDS011;6915;48.296;8.874;2022-09-12T14:38:18;0.38;;;0.38;;
13685;SDS011;6915;48.296;8.874;2022-09-12T14:40:51;0.40;;;0.40;;
13685;SDS011;6915;48.296;8.874;2022-09-12T14:43:26;0.77;;;0.45;;
13685;SDS011;6915;48.296;8.874;2022-09-12T14:45:57;1.55;;;0.40;;
13685;SDS011;6915;48.296;8.874;2022-09-12T14:48:26;0.50;;;0.50;;
13685;SDS011;6915;48.296;8.874;2022-09-12T14:50:55;0.57;;;0.47;;
13685;SDS011;6915;48.296;8.874;2022-09-12T14:53:23;0.40;;;0.30;;
13685;SDS011;6915;48.296;8.874;2022-09-12T14:55:57;0.52;;;0.43;;
13685;SDS011;6915;48.296;8.874;2022-09-12T14:58:33;1.95;;;0.40;;
13685;SDS011;6915;48.296;8.874;2022-09-12T15:01:02;0.40;;;0.40;;
13685;SDS011;6915;48.296;8.874;2022-09-12T15:03:49;0.30;;;0.30;;
13685;SDS011;6915;48.296;8.874;2022-09-12T15:06:19;0.50;;;0.35;;
13685;SDS011;6915;48.296;8.874;2022-09-12T15:08:48;0.40;;;0.40;;
13685;SDS011;6915;48.296;8.874;2022-09-12T15:11:17;0.40;;;0.40;;
13685;SDS011;6915;48.296;8.874;2022-09-12T15:13:44;0.30;;;0.30;;
13685;SDS011;6915;48.296;8.874;2022-09-12T15:16:12;0.30;;;0.30;;
13685;SDS011;6915;48.296;8.874;2022-09-12T15:18:39;0.47;;;0.47;;
13685;SDS011;6915;48.296;8.874;2022-09-12T15:21:07;0.95;;;0.30;;
13685;SDS011;6915;48.296;8.874;2022-09-12T15:23:39;0.25;;;0.25;;
13685;SDS011;6915;48.296;8.874;2022-09-12T15:26:08;0.35;;;0.32;;
13685;SDS011;6915;48.296;8.874;2022-09-12T15:28:36;1.13;;;0.20;;
13685;SDS011;6915;48.296;8.874;2022-09-12T15:31:05;0.35;;;0.35;;
13685;SDS011;6915;48.296;8.874;2022-09-12T15:33:38;0.50;;;0.50;;
13685;SDS011;6915;48.296;8.874;2022-09-12T15:36:09;0.40;;;0.35;;
13685;SDS011;6915;48.296;8.874;2022-09-12T15:38:40;0.60;;;0.35;;
13685;SDS011;6915;48.296;8.874;2022-09-12T15:41:09;1.33;;;0.40;;
13685;SDS011;6915;48.296;8.874;2022-09-12T15:43:37;0.30;;;0.30;;
13685;SDS011;6915;48.296;8.874;2022-09-12T15:46:04;0.35;;;0.35;;
13685;SDS011;6915;48.296;8.874;2022-09-12T15:48:31;1.40;;;0.60;;
13685;SDS011;6915;48.296;8.874;2022-09-12T15:51:00;2.03;;;0.50;;
13685;SDS011;6915;48.296;8.874;2022-09-12T15:53:29;0.45;;;0.40;;
13685;SDS011;6915;48.296;8.874;2022-09-12T15:55:56;1.15;;;0.50;;
13685;SDS011;6915;48.296;8.874;2022-09-12T15:58:23;1.45;;;0.40;;
13685;SDS011;6915;48.296;8.874;2022-09-12T16:00:50;0.60;;;0.45;;
13685;SDS011;6915;48.296;8.874;2022-09-12T16:03:19;0.65;;;0.40;;